sensor_id;sensor_type;location;lat;lon;timestamp;P1;durP1;ratioP1;P2;durP2;ratioP2
13588;SDS011;6865;52.552;13.434;2023-09-30T00:02:26;5.28;;;2.22;;
13588;SDS011;6865;52.552;13.434;2023-09-30T00:04:54;3.90;;;1.88;;
13588;SDS011;6865;52.552;13.434;2023-09-30T00:07:20;5.13;;;1.80;;
13588;SDS011;6865;52.552;13.434;2023-09-30T00:09:47;4.65;;;1.80;;
13588;SDS011;6865;52.552;13.434;2023-09-30T00:12:14;3.72;;;1.58;;
13588;SDS011;6865;52.552;13.434;2023-09-30T00:14:41;5.55;;;2.10;;
13588;SDS011;6865;52.552;13.434;2023-09-30T00:17:08;4.65;;;2.00;;
13588;SDS011;6865;52.552;13.434;2023-09-30T00:19:34;6.57;;;2.13;;
13588;SDS011;6865;52.552;13.434;2023-09-30T00:22:01;6.22;;;1.98;;
13588;SDS011;6865;52.552;13.434;2023-09-30T00:24:27;4.22;;;2.10;;
13588;SDS011;6865;52.552;13.434;2023-09-30T00:26:55;8.05;;;2.88;;
13588;SDS011;6865;52.552;13.434;2023-09-30T00:29:22;5.22;;;2.70;;
13588;SDS011;6865;52.552;13.434;2023-09-30T00:31:49;7.60;;;2.75;;
13588;SDS011;6865;52.552;13.434;2023-09-30T00:34:15;6.72;;;2.35;;
13588;SDS011;6865;52.552;13.434;2023-09-30T00:36:42;8.25;;;2.40;;
13588;SDS011;6865;52.552;13.434;2023-09-30T00:39:09;7.97;;;2.78;;
13588;SDS011;6865;52.552;13.434;2023-09-30T00:41:38;6.75;;;2.42;;
13588;SDS011;6865;52.552;13.434;2023-09-30T00:44:05;7.20;;;2.40;;
13588;SDS011;6865;52.552;13.434;2023-09-30T00:46:35;10.25;;;3.10;;
13588;SDS011;6865;52.552;13.434;2023-09-30T00:49:06;7.90;;;3.00;;
13588;SDS011;6865;52.552;13.434;2023-09-30T00:51:33;8.05;;;3.13;;
13588;SDS011;6865;52.552;13.434;2023-09-30T00:54:00;8.20;;;3.13;;
13588;SDS011;6865;52.552;13.434;2023-09-30T00:56:28;7.95;;;3.40;;
13588;SDS011;6865;52.552;13.434;2023-09-30T00:58:56;8.27;;;3.33;;
13588;SDS011;6865;52.552;13.434;2023-09-30T01:01:23;9.60;;;3.13;;
13588;SDS011;6865;52.552;13.434;2023-09-30T01:03:50;7.93;;;2.75;;
13588;SDS011;6865;52.552;13.434;2023-09-30T01:06:18;9.82;;;3.38;;
13588;SDS011;6865;52.552;13.434;2023-09-30T01:08:45;10.60;;;3.03;;
13588;SDS011;6865;52.552;13.434;2023-09-30T01:11:12;12.60;;;3.37;;
13588;SDS011;6865;52.552;13.434;2023-09-30T01:13:40;8.57;;;3.03;;
13588;SDS011;6865;52.552;13.434;2023-09-30T01:16:07;7.72;;;2.97;;
13588;SDS011;6865;52.552;13.434;2023-09-30T01:18:38;9.17;;;3.53;;
13588;SDS011;6865;52.552;13.434;2023-09-30T01:21:06;11.02;;;3.85;;
13588;SDS011;6865;52.552;13.434;2023-09-30T01:23:33;9.70;;;3.22;;
13588;SDS011;6865;52.552;13.434;2023-09-30T01:26:04;11.77;;;3.63;;
13588;SDS011;6865;52.552;13.434;2023-09-30T01:28:39;12.93;;;3.53;;
13588;SDS011;6865;52.552;13.434;2023-09-30T01:31:06;10.40;;;3.85;;
13588;SDS011;6865;52.552;13.434;2023-09-30T01:33:33;13.50;;;3.85;;
13588;SDS011;6865;52.552;13.434;2023-09-30T01:36:00;11.20;;;3.67;;
13588;SDS011;6865;52.552;13.434;2023-09-30T01:38:27;9.13;;;3.80;;
13588;SDS011;6865;52.552;13.434;2023-09-30T01:40:53;8.50;;;3.43;;
13588;SDS011;6865;52.552;13.434;2023-09-30T01:43:26;13.27;;;3.55;;
13588;SDS011;6865;52.552;13.434;2023-09-30T01:45:53;11.35;;;3.33;;
13588;SDS011;6865;52.552;13.434;2023-09-30T01:48:19;13.67;;;3.97;;
13588;SDS011;6865;52.552;13.434;2023-09-30T01:50:46;12.03;;;3.40;;
13588;SDS011;6865;52.552;13.434;2023-09-30T01:53:14;9.07;;;3.13;;
13588;SDS011;6865;52.552;13.434;2023-09-30T01:55:41;10.02;;;3.17;;
13588;SDS011;6865;52.552;13.434;2023-09-30T01:58:07;14.33;;;3.60;;
13588;SDS011;6865;52.552;13.434;2023-09-30T02:00:37;8.73;;;3.40;;
13588;SDS011;6865;52.552;13.434;2023-09-30T02:03:04;11.57;;;3.47;;
13588;SDS011;6865;52.552;13.434;2023-09-30T02:05:31;10.10;;;3.83;;
13588;SDS011;6865;52.552;13.434;2023-09-30T02:07:57;7.93;;;3.10;;
13588;SDS011;6865;52.552;13.434;2023-09-30T02:10:24;9.40;;;3.40;;
13588;SDS011;6865;52.552;13.434;2023-09-30T02:12:51;10.30;;;3.50;;
13588;SDS011;6865;52.552;13.434;2023-09-30T02:15:18;11.27;;;3.63;;
13588;SDS011;6865;52.552;13.434;2023-09-30T02:17:44;12.83;;;3.43;;
13588;SDS011;6865;52.552;13.434;2023-09-30T02:20:12;10.03;;;3.13;;
13588;SDS011;6865;52.552;13.434;2023-09-30T02:22:42;11.53;;;3.67;;
13588;SDS011;6865;52.552;13.434;2023-09-30T02:25:11;11.40;;;3.63;;
13588;SDS011;6865;52.552;13.434;2023-09-30T02:27:39;9.93;;;3.37;;
13588;SDS011;6865;52.552;13.434;2023-09-30T02:30:08;10.30;;;3.63;;
13588;SDS011;6865;52.552;13.434;2023-09-30T02:32:40;12.20;;;3.33;;
13588;SDS011;6865;52.552;13.434;2023-09-30T02:35:08;15.60;;;3.80;;
13588;SDS011;6865;52.552;13.434;2023-09-30T02:37:38;15.17;;;3.87;;
13588;SDS011;6865;52.552;13.434;2023-09-30T02:40:06;10.83;;;4.03;;
13588;SDS011;6865;52.552;13.434;2023-09-30T02:42:39;10.97;;;3.13;;
13588;SDS011;6865;52.552;13.434;2023-09-30T02:45:07;8.17;;;3.17;;
13588;SDS011;6865;52.552;13.434;2023-09-30T02:47:35;9.40;;;3.30;;
13588;SDS011;6865;52.552;13.434;2023-09-30T02:50:07;12.97;;;3.63;;
13588;SDS011;6865;52.552;13.434;2023-09-30T02:52:34;11.90;;;3.47;;
13588;SDS011;6865;52.552;13.434;2023-09-30T02:55:02;11.37;;;3.70;;
13588;SDS011;6865;52.552;13.434;2023-09-30T02:57:29;8.83;;;3.10;;
13588;SDS011;6865;52.552;13.434;2023-09-30T02:59:57;13.07;;;3.60;;
13588;SDS011;6865;52.552;13.434;2023-09-30T03:02:27;12.20;;;3.70;;
13588;SDS011;6865;52.552;13.434;2023-09-30T03:04:54;10.17;;;3.40;;
13588;SDS011;6865;52.552;13.434;2023-09-30T03:07:21;13.40;;;3.70;;
13588;SDS011;6865;52.552;13.434;2023-09-30T03:09:49;14.60;;;4.10;;
13588;SDS011;6865;52.552;13.434;2023-09-30T03:12:16;10.83;;;3.30;;
13588;SDS011;6865;52.552;13.434;2023-09-30T03:14:43;12.87;;;3.87;;
13588;SDS011;6865;52.552;13.434;2023-09-30T03:17:11;16.13;;;3.43;;
13588;SDS011;6865;52.552;13.434;2023-09-30T03:19:38;16.97;;;4.23;;
13588;SDS011;6865;52.552;13.434;2023-09-30T03:22:05;11.83;;;3.27;;
13588;SDS011;6865;52.552;13.434;2023-09-30T03:24:38;13.40;;;4.20;;
13588;SDS011;6865;52.552;13.434;2023-09-30T03:27:05;14.67;;;3.60;;
13588;SDS011;6865;52.552;13.434;2023-09-30T03:29:35;15.07;;;4.27;;
13588;SDS011;6865;52.552;13.434;2023-09-30T03:32:02;11.33;;;3.77;;
13588;SDS011;6865;52.552;13.434;2023-09-30T03:34:29;13.83;;;4.13;;
13588;SDS011;6865;52.552;13.434;2023-09-30T03:36:56;13.40;;;3.93;;
13588;SDS011;6865;52.552;13.434;2023-09-30T03:39:25;12.33;;;4.20;;
13588;SDS011;6865;52.552;13.434;2023-09-30T03:41:54;14.57;;;4.30;;
13588;SDS011;6865;52.552;13.434;2023-09-30T03:44:22;13.33;;;3.87;;
13588;SDS011;6865;52.552;13.434;2023-09-30T03:46:50;14.43;;;4.43;;
13588;SDS011;6865;52.552;13.434;2023-09-30T03:49:18;11.13;;;4.40;;
13588;SDS011;6865;52.552;13.434;2023-09-30T03:51:46;13.17;;;4.43;;
13588;SDS011;6865;52.552;13.434;2023-09-30T03:54:13;10.37;;;4.03;;
13588;SDS011;6865;52.552;13.434;2023-09-30T03:56:39;11.73;;;3.80;;
13588;SDS011;6865;52.552;13.434;2023-09-30T03:59:07;13.37;;;4.53;;
13588;SDS011;6865;52.552;13.434;2023-09-30T04:01:35;13.00;;;4.10;;
13588;SDS011;6865;52.552;13.434;2023-09-30T04:04:06;15.10;;;4.30;;
13588;SDS011;6865;52.552;13.434;2023-09-30T04:06:35;15.30;;;4.50;;
13588;SDS011;6865;52.552;13.434;2023-09-30T04:09:05;15.60;;;4.03;;
13588;SDS011;6865;52.552;13.434;2023-09-30T04:11:38;11.67;;;4.23;;
13588;SDS011;6865;52.552;13.434;2023-09-30T04:14:06;18.90;;;4.43;;
13588;SDS011;6865;52.552;13.434;2023-09-30T04:16:34;16.00;;;3.93;;
13588;SDS011;6865;52.552;13.434;2023-09-30T04:19:01;18.57;;;4.73;;
13588;SDS011;6865;52.552;13.434;2023-09-30T04:21:28;14.57;;;3.90;;
13588;SDS011;6865;52.552;13.434;2023-09-30T04:23:58;12.40;;;3.90;;
13588;SDS011;6865;52.552;13.434;2023-09-30T04:26:25;16.10;;;4.63;;
13588;SDS011;6865;52.552;13.434;2023-09-30T04:28:52;13.77;;;3.97;;
13588;SDS011;6865;52.552;13.434;2023-09-30T04:31:19;14.80;;;4.60;;
13588;SDS011;6865;52.552;13.434;2023-09-30T04:33:48;15.33;;;4.63;;
13588;SDS011;6865;52.552;13.434;2023-09-30T04:36:17;14.23;;;4.70;;
13588;SDS011;6865;52.552;13.434;2023-09-30T04:38:44;14.43;;;4.30;;
13588;SDS011;6865;52.552;13.434;2023-09-30T04:41:11;14.83;;;4.10;;
13588;SDS011;6865;52.552;13.434;2023-09-30T04:43:37;14.50;;;4.67;;
13588;SDS011;6865;52.552;13.434;2023-09-30T04:46:05;15.60;;;4.57;;
13588;SDS011;6865;52.552;13.434;2023-09-30T04:48:34;13.67;;;3.93;;
13588;SDS011;6865;52.552;13.434;2023-09-30T04:51:00;15.83;;;3.93;;
13588;SDS011;6865;52.552;13.434;2023-09-30T04:53:30;16.00;;;4.30;;
13588;SDS011;6865;52.552;13.434;2023-09-30T04:56:00;14.03;;;4.20;;
13588;SDS011;6865;52.552;13.434;2023-09-30T04:58:27;13.77;;;4.30;;
13588;SDS011;6865;52.552;13.434;2023-09-30T05:00:55;15.60;;;4.37;;
13588;SDS011;6865;52.552;13.434;2023-09-30T05:03:22;13.83;;;4.23;;
13588;SDS011;6865;52.552;13.434;2023-09-30T05:05:52;13.13;;;4.10;;
13588;SDS011;6865;52.552;13.434;2023-09-30T05:08:22;16.73;;;4.43;;
13588;SDS011;6865;52.552;13.434;2023-09-30T05:10:50;14.97;;;4.73;;
13588;SDS011;6865;52.552;13.434;2023-09-30T05:13:16;13.10;;;4.40;;
13588;SDS011;6865;52.552;13.434;2023-09-30T05:15:44;13.90;;;4.23;;
13588;SDS011;6865;52.552;13.434;2023-09-30T05:18:12;12.93;;;4.87;;
13588;SDS011;6865;52.552;13.434;2023-09-30T05:20:40;14.50;;;4.60;;
13588;SDS011;6865;52.552;13.434;2023-09-30T05:23:07;16.23;;;5.13;;
13588;SDS011;6865;52.552;13.434;2023-09-30T05:25:33;16.07;;;4.60;;
13588;SDS011;6865;52.552;13.434;2023-09-30T05:28:00;13.27;;;4.07;;
13588;SDS011;6865;52.552;13.434;2023-09-30T05:30:27;17.57;;;4.37;;
13588;SDS011;6865;52.552;13.434;2023-09-30T05:32:54;14.10;;;4.60;;
13588;SDS011;6865;52.552;13.434;2023-09-30T05:35:21;13.77;;;4.33;;
13588;SDS011;6865;52.552;13.434;2023-09-30T05:37:49;15.13;;;4.43;;
13588;SDS011;6865;52.552;13.434;2023-09-30T05:40:19;13.80;;;4.13;;
13588;SDS011;6865;52.552;13.434;2023-09-30T05:42:55;10.93;;;4.03;;
13588;SDS011;6865;52.552;13.434;2023-09-30T05:45:25;10.90;;;4.07;;
13588;SDS011;6865;52.552;13.434;2023-09-30T05:48:02;9.57;;;4.10;;
13588;SDS011;6865;52.552;13.434;2023-09-30T05:50:32;14.03;;;4.03;;
13588;SDS011;6865;52.552;13.434;2023-09-30T05:53:00;12.27;;;4.17;;
13588;SDS011;6865;52.552;13.434;2023-09-30T05:55:27;16.73;;;4.60;;
13588;SDS011;6865;52.552;13.434;2023-09-30T05:57:54;14.83;;;4.80;;
13588;SDS011;6865;52.552;13.434;2023-09-30T06:00:21;11.80;;;4.23;;
13588;SDS011;6865;52.552;13.434;2023-09-30T06:02:57;19.53;;;4.30;;
13588;SDS011;6865;52.552;13.434;2023-09-30T06:05:25;15.17;;;4.30;;
13588;SDS011;6865;52.552;13.434;2023-09-30T06:07:53;14.70;;;4.13;;
13588;SDS011;6865;52.552;13.434;2023-09-30T06:10:23;14.20;;;4.20;;
13588;SDS011;6865;52.552;13.434;2023-09-30T06:12:52;15.73;;;4.80;;
13588;SDS011;6865;52.552;13.434;2023-09-30T06:15:23;12.80;;;4.37;;
13588;SDS011;6865;52.552;13.434;2023-09-30T06:17:54;16.73;;;4.37;;
13588;SDS011;6865;52.552;13.434;2023-09-30T06:20:22;13.07;;;4.40;;
13588;SDS011;6865;52.552;13.434;2023-09-30T06:22:52;15.00;;;4.07;;
13588;SDS011;6865;52.552;13.434;2023-09-30T06:25:21;14.13;;;4.10;;
13588;SDS011;6865;52.552;13.434;2023-09-30T06:27:50;14.13;;;4.00;;
13588;SDS011;6865;52.552;13.434;2023-09-30T06:30:18;11.30;;;4.20;;
13588;SDS011;6865;52.552;13.434;2023-09-30T06:32:48;11.33;;;4.00;;
13588;SDS011;6865;52.552;13.434;2023-09-30T06:35:15;13.13;;;4.27;;
13588;SDS011;6865;52.552;13.434;2023-09-30T06:37:43;11.47;;;4.00;;
13588;SDS011;6865;52.552;13.434;2023-09-30T06:40:11;17.30;;;4.13;;
13588;SDS011;6865;52.552;13.434;2023-09-30T06:42:39;16.80;;;4.63;;
13588;SDS011;6865;52.552;13.434;2023-09-30T06:45:06;12.63;;;3.97;;
13588;SDS011;6865;52.552;13.434;2023-09-30T06:47:37;12.20;;;3.97;;
13588;SDS011;6865;52.552;13.434;2023-09-30T06:50:10;13.93;;;4.30;;
13588;SDS011;6865;52.552;13.434;2023-09-30T06:52:39;13.47;;;3.93;;
13588;SDS011;6865;52.552;13.434;2023-09-30T06:55:07;14.17;;;4.40;;
13588;SDS011;6865;52.552;13.434;2023-09-30T06:57:35;10.63;;;3.53;;
13588;SDS011;6865;52.552;13.434;2023-09-30T07:00:07;12.73;;;4.43;;
13588;SDS011;6865;52.552;13.434;2023-09-30T07:02:35;18.83;;;4.45;;
13588;SDS011;6865;52.552;13.434;2023-09-30T07:05:09;14.35;;;3.60;;
13588;SDS011;6865;52.552;13.434;2023-09-30T07:07:37;14.77;;;4.17;;
13588;SDS011;6865;52.552;13.434;2023-09-30T07:10:04;15.05;;;4.18;;
13588;SDS011;6865;52.552;13.434;2023-09-30T07:12:32;12.10;;;3.75;;
13588;SDS011;6865;52.552;13.434;2023-09-30T07:15:02;13.30;;;4.05;;
13588;SDS011;6865;52.552;13.434;2023-09-30T07:17:31;13.00;;;4.03;;
13588;SDS011;6865;52.552;13.434;2023-09-30T07:19:58;13.43;;;3.70;;
13588;SDS011;6865;52.552;13.434;2023-09-30T07:22:25;11.07;;;3.97;;
13588;SDS011;6865;52.552;13.434;2023-09-30T07:25:11;15.60;;;3.95;;
13588;SDS011;6865;52.552;13.434;2023-09-30T07:27:41;14.30;;;4.28;;
13588;SDS011;6865;52.552;13.434;2023-09-30T07:30:08;18.65;;;5.05;;
13588;SDS011;6865;52.552;13.434;2023-09-30T07:32:34;15.63;;;4.13;;
13588;SDS011;6865;52.552;13.434;2023-09-30T07:35:01;14.00;;;3.87;;
13588;SDS011;6865;52.552;13.434;2023-09-30T07:37:28;13.07;;;3.63;;
13588;SDS011;6865;52.552;13.434;2023-09-30T07:39:55;11.87;;;3.63;;
13588;SDS011;6865;52.552;13.434;2023-09-30T07:42:21;13.23;;;4.10;;
13588;SDS011;6865;52.552;13.434;2023-09-30T07:44:49;10.27;;;3.50;;
13588;SDS011;6865;52.552;13.434;2023-09-30T07:47:15;12.35;;;4.15;;
13588;SDS011;6865;52.552;13.434;2023-09-30T07:49:42;13.48;;;3.83;;
13588;SDS011;6865;52.552;13.434;2023-09-30T07:52:09;12.68;;;4.00;;
13588;SDS011;6865;52.552;13.434;2023-09-30T07:54:37;14.25;;;3.80;;
13588;SDS011;6865;52.552;13.434;2023-09-30T07:57:03;9.70;;;3.58;;
13588;SDS011;6865;52.552;13.434;2023-09-30T07:59:30;16.13;;;4.28;;
13588;SDS011;6865;52.552;13.434;2023-09-30T08:02:00;11.75;;;4.70;;
13588;SDS011;6865;52.552;13.434;2023-09-30T08:04:27;12.10;;;4.63;;
13588;SDS011;6865;52.552;13.434;2023-09-30T08:06:56;13.05;;;4.28;;
13588;SDS011;6865;52.552;13.434;2023-09-30T08:09:22;17.40;;;4.45;;
13588;SDS011;6865;52.552;13.434;2023-09-30T08:11:50;15.20;;;4.20;;
13588;SDS011;6865;52.552;13.434;2023-09-30T08:14:20;12.63;;;4.07;;
13588;SDS011;6865;52.552;13.434;2023-09-30T08:16:46;13.13;;;4.28;;
13588;SDS011;6865;52.552;13.434;2023-09-30T08:19:15;20.70;;;4.15;;
13588;SDS011;6865;52.552;13.434;2023-09-30T08:21:42;15.68;;;4.63;;
13588;SDS011;6865;52.552;13.434;2023-09-30T08:24:09;15.55;;;4.28;;
13588;SDS011;6865;52.552;13.434;2023-09-30T08:26:35;13.50;;;3.60;;
13588;SDS011;6865;52.552;13.434;2023-09-30T08:29:02;12.73;;;3.97;;
13588;SDS011;6865;52.552;13.434;2023-09-30T08:31:29;15.10;;;3.90;;
13588;SDS011;6865;52.552;13.434;2023-09-30T08:33:56;12.15;;;4.20;;
13588;SDS011;6865;52.552;13.434;2023-09-30T08:36:23;15.98;;;3.90;;
13588;SDS011;6865;52.552;13.434;2023-09-30T08:38:51;14.05;;;4.07;;
13588;SDS011;6865;52.552;13.434;2023-09-30T08:41:24;12.98;;;3.65;;
13588;SDS011;6865;52.552;13.434;2023-09-30T08:44:01;12.25;;;4.18;;
13588;SDS011;6865;52.552;13.434;2023-09-30T08:46:30;14.27;;;3.72;;
13588;SDS011;6865;52.552;13.434;2023-09-30T08:48:59;9.75;;;3.13;;
13588;SDS011;6865;52.552;13.434;2023-09-30T08:51:29;11.45;;;3.40;;
13588;SDS011;6865;52.552;13.434;2023-09-30T08:53:57;11.50;;;3.83;;
13588;SDS011;6865;52.552;13.434;2023-09-30T08:56:28;19.60;;;3.95;;
13588;SDS011;6865;52.552;13.434;2023-09-30T08:58:57;11.93;;;3.63;;
13588;SDS011;6865;52.552;13.434;2023-09-30T09:01:28;14.98;;;3.97;;
13588;SDS011;6865;52.552;13.434;2023-09-30T09:03:56;14.27;;;4.13;;
13588;SDS011;6865;52.552;13.434;2023-09-30T09:06:24;11.82;;;4.03;;
13588;SDS011;6865;52.552;13.434;2023-09-30T09:08:52;13.98;;;3.58;;
13588;SDS011;6865;52.552;13.434;2023-09-30T09:11:19;9.75;;;3.60;;
13588;SDS011;6865;52.552;13.434;2023-09-30T09:13:49;13.90;;;3.63;;
13588;SDS011;6865;52.552;13.434;2023-09-30T09:16:23;10.90;;;3.50;;
13588;SDS011;6865;52.552;13.434;2023-09-30T09:18:51;11.40;;;3.67;;
13588;SDS011;6865;52.552;13.434;2023-09-30T09:21:18;16.42;;;3.50;;
13588;SDS011;6865;52.552;13.434;2023-09-30T09:23:53;10.43;;;3.65;;
13588;SDS011;6865;52.552;13.434;2023-09-30T09:28:58;13.45;;;3.47;;
13588;SDS011;6865;52.552;13.434;2023-09-30T09:31:32;11.85;;;3.60;;
13588;SDS011;6865;52.552;13.434;2023-09-30T09:34:03;12.40;;;4.03;;
13588;SDS011;6865;52.552;13.434;2023-09-30T09:36:40;11.25;;;3.88;;
13588;SDS011;6865;52.552;13.434;2023-09-30T09:39:11;13.68;;;3.30;;
13588;SDS011;6865;52.552;13.434;2023-09-30T09:41:51;15.98;;;3.58;;
13588;SDS011;6865;52.552;13.434;2023-09-30T09:44:19;10.85;;;3.53;;
13588;SDS011;6865;52.552;13.434;2023-09-30T09:46:50;9.05;;;2.80;;
13588;SDS011;6865;52.552;13.434;2023-09-30T09:49:17;11.23;;;3.65;;
13588;SDS011;6865;52.552;13.434;2023-09-30T09:51:48;10.60;;;3.55;;
13588;SDS011;6865;52.552;13.434;2023-09-30T09:54:16;11.45;;;3.30;;
13588;SDS011;6865;52.552;13.434;2023-09-30T09:56:43;11.70;;;3.13;;
13588;SDS011;6865;52.552;13.434;2023-09-30T09:59:13;11.57;;;3.00;;
13588;SDS011;6865;52.552;13.434;2023-09-30T10:01:40;12.10;;;3.20;;
13588;SDS011;6865;52.552;13.434;2023-09-30T10:04:10;8.27;;;3.03;;
13588;SDS011;6865;52.552;13.434;2023-09-30T10:06:37;10.13;;;2.83;;
13588;SDS011;6865;52.552;13.434;2023-09-30T10:09:08;10.85;;;3.53;;
13588;SDS011;6865;52.552;13.434;2023-09-30T10:11:40;12.85;;;3.17;;
13588;SDS011;6865;52.552;13.434;2023-09-30T10:14:07;10.75;;;3.10;;
13588;SDS011;6865;52.552;13.434;2023-09-30T10:19:12;11.15;;;2.80;;
13588;SDS011;6865;52.552;13.434;2023-09-30T10:21:53;10.15;;;2.97;;
13588;SDS011;6865;52.552;13.434;2023-09-30T10:24:52;10.20;;;3.00;;
13588;SDS011;6865;52.552;13.434;2023-09-30T10:35:20;12.27;;;3.28;;
13588;SDS011;6865;52.552;13.434;2023-09-30T10:37:47;9.60;;;2.83;;
13588;SDS011;6865;52.552;13.434;2023-09-30T10:40:27;8.40;;;2.63;;
13588;SDS011;6865;52.552;13.434;2023-09-30T10:42:55;10.40;;;2.90;;
13588;SDS011;6865;52.552;13.434;2023-09-30T10:53:46;8.88;;;2.92;;
13588;SDS011;6865;52.552;13.434;2023-09-30T10:56:23;11.02;;;2.88;;
13588;SDS011;6865;52.552;13.434;2023-09-30T10:58:51;9.43;;;2.83;;
13588;SDS011;6865;52.552;13.434;2023-09-30T11:01:20;8.07;;;2.50;;
13588;SDS011;6865;52.552;13.434;2023-09-30T11:03:48;9.50;;;2.95;;
13588;SDS011;6865;52.552;13.434;2023-09-30T11:06:20;12.65;;;2.75;;
13588;SDS011;6865;52.552;13.434;2023-09-30T11:08:51;9.45;;;2.88;;
13588;SDS011;6865;52.552;13.434;2023-09-30T11:11:36;12.07;;;2.90;;
13588;SDS011;6865;52.552;13.434;2023-09-30T11:14:22;9.00;;;2.80;;
13588;SDS011;6865;52.552;13.434;2023-09-30T11:16:59;10.48;;;2.95;;
13588;SDS011;6865;52.552;13.434;2023-09-30T11:19:34;7.85;;;3.00;;
13588;SDS011;6865;52.552;13.434;2023-09-30T11:22:14;12.15;;;2.83;;
13588;SDS011;6865;52.552;13.434;2023-09-30T11:24:41;9.30;;;3.13;;
13588;SDS011;6865;52.552;13.434;2023-09-30T11:27:08;7.93;;;2.90;;
13588;SDS011;6865;52.552;13.434;2023-09-30T11:29:35;11.02;;;2.83;;
13588;SDS011;6865;52.552;13.434;2023-09-30T11:32:02;8.82;;;2.75;;
13588;SDS011;6865;52.552;13.434;2023-09-30T11:34:36;11.95;;;4.57;;
13588;SDS011;6865;52.552;13.434;2023-09-30T11:37:03;11.38;;;2.92;;
13588;SDS011;6865;52.552;13.434;2023-09-30T11:39:31;7.88;;;2.47;;
13588;SDS011;6865;52.552;13.434;2023-09-30T11:42:00;10.50;;;3.35;;
13588;SDS011;6865;52.552;13.434;2023-09-30T11:44:27;7.65;;;2.75;;
13588;SDS011;6865;52.552;13.434;2023-09-30T11:47:00;11.63;;;2.92;;
13588;SDS011;6865;52.552;13.434;2023-09-30T11:49:32;8.55;;;3.17;;
13588;SDS011;6865;52.552;13.434;2023-09-30T11:52:10;8.70;;;2.78;;
13588;SDS011;6865;52.552;13.434;2023-09-30T11:54:38;6.80;;;2.45;;
13588;SDS011;6865;52.552;13.434;2023-09-30T11:57:19;11.77;;;2.75;;
13588;SDS011;6865;52.552;13.434;2023-09-30T11:59:47;7.78;;;2.70;;
13588;SDS011;6865;52.552;13.434;2023-09-30T12:02:15;7.57;;;2.88;;
13588;SDS011;6865;52.552;13.434;2023-09-30T12:04:44;9.23;;;2.60;;
13588;SDS011;6865;52.552;13.434;2023-09-30T12:07:11;7.32;;;2.40;;
13588;SDS011;6865;52.552;13.434;2023-09-30T12:09:39;10.80;;;2.60;;
13588;SDS011;6865;52.552;13.434;2023-09-30T12:12:06;10.18;;;2.50;;
13588;SDS011;6865;52.552;13.434;2023-09-30T12:14:38;9.18;;;2.30;;
13588;SDS011;6865;52.552;13.434;2023-09-30T12:17:05;10.38;;;2.72;;
13588;SDS011;6865;52.552;13.434;2023-09-30T12:19:37;9.38;;;2.50;;
13588;SDS011;6865;52.552;13.434;2023-09-30T12:22:04;6.15;;;2.45;;
13588;SDS011;6865;52.552;13.434;2023-09-30T12:24:31;5.35;;;2.15;;
13588;SDS011;6865;52.552;13.434;2023-09-30T12:26:57;5.97;;;2.35;;
13588;SDS011;6865;52.552;13.434;2023-09-30T12:29:24;8.52;;;2.50;;
13588;SDS011;6865;52.552;13.434;2023-09-30T12:31:51;10.93;;;3.40;;
13588;SDS011;6865;52.552;13.434;2023-09-30T12:34:20;18.23;;;9.65;;
13588;SDS011;6865;52.552;13.434;2023-09-30T12:36:52;10.02;;;2.38;;
13588;SDS011;6865;52.552;13.434;2023-09-30T12:39:19;6.30;;;2.08;;
13588;SDS011;6865;52.552;13.434;2023-09-30T12:41:51;5.60;;;2.28;;
13588;SDS011;6865;52.552;13.434;2023-09-30T12:44:18;6.13;;;2.38;;
13588;SDS011;6865;52.552;13.434;2023-09-30T12:46:45;7.35;;;2.85;;
13588;SDS011;6865;52.552;13.434;2023-09-30T12:49:12;8.88;;;2.25;;
13588;SDS011;6865;52.552;13.434;2023-09-30T12:51:38;10.10;;;2.78;;
13588;SDS011;6865;52.552;13.434;2023-09-30T12:54:05;7.40;;;2.95;;
13588;SDS011;6865;52.552;13.434;2023-09-30T12:56:32;8.18;;;2.30;;
13588;SDS011;6865;52.552;13.434;2023-09-30T12:58:59;8.85;;;2.20;;
13588;SDS011;6865;52.552;13.434;2023-09-30T13:01:26;7.63;;;2.35;;
13588;SDS011;6865;52.552;13.434;2023-09-30T13:03:55;5.97;;;2.55;;
13588;SDS011;6865;52.552;13.434;2023-09-30T13:06:22;7.88;;;2.75;;
13588;SDS011;6865;52.552;13.434;2023-09-30T13:08:49;7.07;;;2.13;;
13588;SDS011;6865;52.552;13.434;2023-09-30T13:11:15;6.35;;;2.17;;
13588;SDS011;6865;52.552;13.434;2023-09-30T13:13:42;7.60;;;2.30;;
13588;SDS011;6865;52.552;13.434;2023-09-30T13:16:10;6.90;;;2.40;;
13588;SDS011;6865;52.552;13.434;2023-09-30T13:18:38;6.68;;;2.22;;
13588;SDS011;6865;52.552;13.434;2023-09-30T13:21:05;5.53;;;1.90;;
13588;SDS011;6865;52.552;13.434;2023-09-30T13:23:33;7.10;;;2.25;;
13588;SDS011;6865;52.552;13.434;2023-09-30T13:26:00;8.05;;;2.22;;
13588;SDS011;6865;52.552;13.434;2023-09-30T13:28:27;6.47;;;2.38;;
13588;SDS011;6865;52.552;13.434;2023-09-30T13:30:54;12.02;;;2.80;;
13588;SDS011;6865;52.552;13.434;2023-09-30T13:33:21;6.80;;;2.15;;
13588;SDS011;6865;52.552;13.434;2023-09-30T13:35:48;6.45;;;1.88;;
13588;SDS011;6865;52.552;13.434;2023-09-30T13:38:15;6.72;;;1.90;;
13588;SDS011;6865;52.552;13.434;2023-09-30T13:40:45;6.80;;;2.10;;
13588;SDS011;6865;52.552;13.434;2023-09-30T13:43:12;6.22;;;2.22;;
13588;SDS011;6865;52.552;13.434;2023-09-30T13:45:39;8.35;;;2.60;;
13588;SDS011;6865;52.552;13.434;2023-09-30T13:48:06;6.22;;;2.10;;
13588;SDS011;6865;52.552;13.434;2023-09-30T13:50:33;7.15;;;2.00;;
13588;SDS011;6865;52.552;13.434;2023-09-30T13:53:01;4.38;;;2.00;;
13588;SDS011;6865;52.552;13.434;2023-09-30T13:55:29;7.07;;;2.33;;
13588;SDS011;6865;52.552;13.434;2023-09-30T13:57:55;6.30;;;2.15;;
13588;SDS011;6865;52.552;13.434;2023-09-30T14:00:22;5.35;;;2.25;;
13588;SDS011;6865;52.552;13.434;2023-09-30T14:02:49;6.72;;;2.30;;
13588;SDS011;6865;52.552;13.434;2023-09-30T14:05:18;7.32;;;2.20;;
13588;SDS011;6865;52.552;13.434;2023-09-30T14:07:44;6.95;;;2.10;;
13588;SDS011;6865;52.552;13.434;2023-09-30T14:10:11;7.78;;;2.20;;
13588;SDS011;6865;52.552;13.434;2023-09-30T14:12:38;6.72;;;1.98;;
13588;SDS011;6865;52.552;13.434;2023-09-30T14:15:09;5.53;;;2.10;;
13588;SDS011;6865;52.552;13.434;2023-09-30T14:17:36;4.85;;;1.75;;
13588;SDS011;6865;52.552;13.434;2023-09-30T14:20:03;4.50;;;2.00;;
13588;SDS011;6865;52.552;13.434;2023-09-30T14:22:32;8.50;;;2.05;;
13588;SDS011;6865;52.552;13.434;2023-09-30T14:24:59;6.93;;;2.15;;
13588;SDS011;6865;52.552;13.434;2023-09-30T14:27:26;5.90;;;1.67;;
13588;SDS011;6865;52.552;13.434;2023-09-30T14:29:53;4.45;;;1.73;;
13588;SDS011;6865;52.552;13.434;2023-09-30T14:32:19;7.38;;;2.05;;
13588;SDS011;6865;52.552;13.434;2023-09-30T14:34:46;5.07;;;1.63;;
13588;SDS011;6865;52.552;13.434;2023-09-30T14:37:13;4.97;;;2.08;;
13588;SDS011;6865;52.552;13.434;2023-09-30T14:39:40;5.55;;;2.00;;
13588;SDS011;6865;52.552;13.434;2023-09-30T14:42:07;7.13;;;1.85;;
13588;SDS011;6865;52.552;13.434;2023-09-30T14:44:33;6.85;;;2.05;;
13588;SDS011;6865;52.552;13.434;2023-09-30T14:47:00;7.57;;;2.33;;
13588;SDS011;6865;52.552;13.434;2023-09-30T14:49:27;6.60;;;2.08;;
13588;SDS011;6865;52.552;13.434;2023-09-30T14:51:55;4.93;;;1.88;;
13588;SDS011;6865;52.552;13.434;2023-09-30T14:54:23;4.45;;;1.90;;
13588;SDS011;6865;52.552;13.434;2023-09-30T14:56:50;6.78;;;2.20;;
13588;SDS011;6865;52.552;13.434;2023-09-30T14:59:16;5.78;;;1.90;;
13588;SDS011;6865;52.552;13.434;2023-09-30T15:01:43;4.38;;;1.88;;
13588;SDS011;6865;52.552;13.434;2023-09-30T15:04:10;3.90;;;1.90;;
13588;SDS011;6865;52.552;13.434;2023-09-30T15:06:37;5.30;;;2.38;;
13588;SDS011;6865;52.552;13.434;2023-09-30T15:09:04;8.35;;;2.15;;